Sydney, Canada
Current Conditions -  °F | °C
As of 9:00 PM on Saturday 25 Oct 2014 (Local Time) from CYQY Reporting Station
Drizzle Drizzle  
Wind Chill: 50°   Ceiling: 400
Heat Index: 50°   Visibility: 1.5mi
Dew Point: 50°   Wind: 5mph
Humidity: 100%   Direction: 90°E
Pressure: 29.46"   Gusts: NA
Location:  46.14°N, 60.2°W
Report Text: CYQY 260000Z 09004KT 1 1/2SM -DZ BR BKN004 OVC017 10/10 A2946 RMK ST6SC2 SLP977
Loading
Personal Weather Stations






























Interactive Weather Map
Tropical Storm Tracking
New forecast layout! Learn more

10-Day Weather Forecast

Advertisements
Track Severe Weather on mobile